x

New Dungeness - 17 Nm Ne Of Port Angeles, Wa (46088) Wave Buoy

10:50 - Thu 25th Aug 2016 All times are PDT. -7 hours from GMT.

  • Sig Wave height 0.7ft
  • Average Period 4s
  • Wind
    7mph
  • Sea Temp 55°f
  • Aire Temp 62°f
  • Sea Pressure 1019.5mb
  • New Dungeness - 17 Nm Ne Of Port Angeles, Wa
  • New Dungeness - 17 Nm Ne Of Port Angeles, Wa

More Historic Weather Station data

Upgrade to MSW Pro to gain access to the past 30 days of data for over 8000 Wavebouys and Weather Stations around the globe.

Join Pro

Comparision Forecast

View Surf forecast
   
jue 08/25 10:50 0.7ft  -  4s 7
mph
1019.5mb 55f 62f
10:20 0.7ft  -  5s 2
mph
1019.8mb 55f 61f
9:50 0.7ft  -  4s  -  mph 1020mb 55f 60f
9:20 1ft 6s 5s 2
mph
1020.2mb 55f 58f
8:50 1ft 6s 5s 4
mph
1020.1mb 54f 59f
8:20 1ft 7s 6s 2 4 mph 1020.2mb 54f 60f
7:50 1ft 7s 6s 2
mph
1020.2mb 54f 62f
7:20 1ft 7s 6s 2
mph
1020.4mb 54f 58f
6:50 1ft 7s 6s 2 4 mph 1020.3mb 54f 57f
6:20 1ft 7s 6s 2
mph
1020.1mb 53f 56f
5:50 0.7ft  -  5s  -  2 mph 1019.9mb 54f 57f
5:20 0.7ft  -  6s 4
mph
1019.9mb 53f 57f
4:50 0.7ft  -  5s 4
mph
1019.8mb 53f 60f
4:20 0.7ft  -  5s 4 7 mph 1019.9mb 53f 60f
3:50 0.3ft  -  4s 2 4 mph 1020mb 53f 59f
3:20 0.3ft  -  5s 2 4 mph 1019.9mb 53f 58f
2:50 0.3ft  -  4s 2
mph
1019.9mb 53f 57f
2:20 0.3ft  -  4s 2 4 mph 1019.8mb 52f 57f
1:50 0.7ft  -  4s 4
mph
1019.8mb 53f 57f
1:20 0.7ft  -  4s 7 9 mph 1019.7mb 53f 57f
12:50 0.7ft  -  4s 7 9 mph 1019.7mb 53f 57f
12:20 0.7ft  -  3s 7 9 mph 1019.8mb 53f 56f
mié 08/24 11:50 0.7ft  -  3s 7 9 mph 1019.6mb 53f 57f
11:20 0.7ft  -  3s 7 11 mph 1019.5mb 53f 57f
10:50 0.7ft  -  3s 7 9 mph 1019.5mb 53f 57f
10:20 0.3ft  -  4s 11
mph
1019.5mb 53f 56f
9:50 0.3ft  -  4s 11
mph
1019.6mb 53f 57f
9:20 0.3ft  -  4s 7 9 mph 1019.6mb 53f 57f
8:20 0.3ft  -  3s 7
mph
1019.5mb 54f 60f
7:50 0.3ft  -  4s 7 9 mph 1019.6mb 54f 61f
7:20 0.3ft  -  4s 2 4 mph 1019.6mb 54f 66f
6:50 0.3ft  -  4s 4
mph
1019.7mb 55f 67f
6:20 0.7ft  -  4s 4 7 mph 1019.9mb 54f 64f
5:50 0.3ft  -  4s 4 7 mph 1020.1mb 54f 68f
5:20 0.3ft  -  3s 4 7 mph 1020.4mb 56f 71f
4:50 0.3ft  -  4s 7 9 mph 1020.7mb 56f 66f
4:20 0.3ft  -  5s 9 11 mph 1021mb 56f 66f
3:50 0.3ft  -  5s 9
mph
1021.3mb 56f 63f
3:20 0.7ft  -  5s 9
mph
1021.6mb 55f 65f
2:50 0.7ft  -  4s 9
mph
1021.9mb 55f 64f
2:20 0.7ft  -  4s 4
mph
1022.3mb 55f 65f
1:50 0.7ft  -  4s 7
mph
1022.4mb 55f 65f
1:20 0.7ft  -  5s 4 7 mph 1022.9mb 55f 65f
12:50 0.7ft  -  5s 2 4 mph 1023.1mb 54f 65f
12:20 0.3ft  -  4s 4
mph
1023.2mb 54f 62f
11:50 0.7ft  -  4s 4 7 mph 1023.4mb 55f 61f
11:20 0.7ft  -  4s 4 7 mph 1023.6mb 55f 64f
10:50 0.3ft  -  4s 2 4 mph 1024mb 55f 62f
10:20 0.3ft  -  4s 2 4 mph 1024.1mb 55f 61f
9:50 0.3ft  -   -  4
mph
1024.1mb 53f 60f
9:20 0.3ft  -  4s 2 4 mph 1024.1mb 53f 60f
8:50 0.7ft  -  4s 4
mph
1024.1mb 53f 58f
8:20 0.7ft  -  4s 4
mph
1024.1mb 53f 58f
7:50 0.7ft  -  4s 2
mph
1024mb 53f 57f
7:20 0.7ft  -  4s 2
mph
1023.8mb 53f 56f
6:50 0.7ft  -  4s 2 4 mph 1023.6mb 53f 55f
6:20 0.7ft  -  4s 2 4 mph 1023.4mb 53f 55f
5:50 0.7ft  -  4s 4 7 mph 1023.2mb 52f 54f
5:20 0.3ft  -  4s 9
mph
1023mb 52f 54f
4:50 0.3ft  -  4s 9
mph
1022.9mb 52f 54f
4:20 0.7ft  -  4s 7 9 mph 1022.7mb 52f 54f
3:50 0.7ft  -  4s 4
mph
1022.5mb 52f 54f
3:20 0.7ft  -  4s 2
mph
1022.4mb 52f 54f
2:50 0.7ft  -  4s 4
mph
1022.2mb 53f 55f
1:50 0.3ft  -  4s 2 4 mph 1022.1mb 53f 55f
1:20 0.7ft  -  4s 4 7 mph 1021.9mb 53f 55f
12:50 0.7ft  -  4s 4 7 mph 1021.8mb 53f 55f
12:20 1ft 4s 4s 7
mph
1021.8mb 53f 55f
mar 08/23 11:50 1ft 4s 3s 9 11 mph 1021.7mb 53f 56f
11:20 1ft 3s 3s 9 13 mph 1021.7mb 53f 56f
10:50 1ft 3s 3s 9 11 mph 1021.5mb 53f 57f
10:20 1ft 3s 3s 11 13 mph 1021.3mb 52f 56f
9:50 1ft 3s 3s 9 11 mph 1021.2mb 52f 56f
9:20 1ft 3s 3s 11 13 mph 1021.2mb 53f 56f
8:50 1ft 3s 3s 13 16 mph 1020.8mb 53f 56f
8:20 1ft 3s 3s 13
mph
1020.4mb 53f 57f
7:50 0.7ft  -  4s 13 16 mph 1020.3mb 54f 59f
7:20 0.7ft  -  4s 11 13 mph 1020.3mb 54f 58f
6:50 0.7ft  -  4s 7 9 mph 1020.6mb 54f 58f
6:20 0.7ft  -  5s 7 9 mph 1020.8mb 53f 59f
5:50 0.3ft  -  4s 7
mph
1020.9mb 55f 62f
5:20 0.3ft  -  4s 9
mph
1021mb 54f 62f
4:50 0.3ft  -  4s 9
mph
1021.1mb 55f 61f
4:20 0.3ft  -  3s 4 7 mph 1021.3mb 55f 62f
3:50 0.3ft  -  3s 4
mph
1021.5mb 55f 62f
3:20 0.3ft  -  4s 7
mph
1021.6mb 55f 59f
2:50 0.3ft  -  4s 4 9 mph 1021.7mb 55f 60f
2:20 0.3ft  -  4s 4 7 mph 1021.9mb 54f 61f
1:50 0.3ft  -  4s 4 7 mph 1022.1mb 54f 59f
1:20 0.7ft  -  4s 4
mph
1022mb 54f 59f
12:50 0.7ft  -  4s 7
mph
1022.1mb 54f 59f
12:20 0.7ft  -  4s 4 7 mph 1022.4mb 53f 57f
11:50 0.7ft  -  4s 4 7 mph 1022.6mb 53f 57f
11:20 0.7ft  -  5s 4
mph
1022.8mb 53f 56f
10:50 0.3ft  -  4s 4
mph
1022.8mb 53f 55f
10:20 0.3ft  -  4s 4
mph
1022.8mb 53f 55f
9:50 0.3ft  -  4s 4 7 mph 1022.7mb 53f 55f
9:20 0.3ft  -  4s 4 7 mph 1022.6mb 53f 54f
8:50 0.3ft  -  4s 7 9 mph 1022.5mb 53f 54f
8:20 0.7ft  -  4s 7 9 mph 1022.3mb 52f 54f
7:50 0.7ft  -  4s 9 11 mph 1022.1mb 52f 53f
7:20 1ft 7s 5s 9
mph
1021.9mb 53f 53f
6:50 1.3ft 7s 5s 7
mph
1021.7mb 53f 53f
6:20 1.6ft 7s 6s 4 7 mph 1021.3mb 53f 53f
5:50 1.6ft 7s 6s 7
mph
1021.1mb 53f 53f
5:20 1ft 7s 5s 7
mph
1020.8mb 52f 53f
4:50 1ft 7s 5s 4
mph
1020.6mb 52f 53f
4:20 1ft 8s 5s 4
mph
1020.4mb 52f 53f
3:50 0.7ft  -  5s 2 4 mph 1020.2mb 52f 53f
3:20 0.7ft  -  4s  -  mph 1020.1mb 52f 53f
2:50 0.7ft  -  4s 4
mph
1020mb 52f 53f
2:20 0.7ft  -  4s 7
mph
1020mb 52f 54f
1:50 0.7ft  -  4s 7 9 mph 1019.9mb 52f 54f
1:20 0.7ft  -  4s 9
mph
1019.9mb 52f 54f
12:50 0.7ft  -  4s 7 9 mph 1019.9mb 53f 54f
12:20 0.7ft  -  3s 9 11 mph 1019.8mb 52f 54f
lun 08/22 11:50 0.7ft  -  3s 11
mph
1019.7mb 52f 54f
11:20 0.7ft  -  3s 11
mph
1019.6mb 52f 54f
10:50 0.7ft  -  3s 11 13 mph 1019.4mb 53f 54f
10:20 0.7ft  -  3s 11
mph
1019.3mb 52f 54f
9:50 0.3ft  -  4s 11
mph
1019.2mb 53f 54f
9:20 0.3ft  -  4s 9 11 mph 1019mb 52f 55f
8:50 0.3ft  -  4s 9 11 mph 1018.6mb 52f 55f
8:20 0.7ft  -  4s 7 9 mph 1018.3mb 53f 55f
7:50 0.7ft  -  4s 4
mph
1018.2mb 52f 58f
7:20 0.7ft  -  4s 4
mph
1018.2mb 53f 59f
6:50 0.7ft  -  5s 4 7 mph 1018.2mb 53f 58f
6:20 0.7ft  -  5s  -  2 mph 1018.2mb 53f 63f
5:50 1.3ft 6s 5s 2
mph
1018.4mb 54f 59f
5:20 1.3ft 7s 6s  -  2 mph 1018.6mb 55f 61f
4:50 1ft 6s 5s  -  2 mph 1018.5mb 56f 59f
4:20 1ft 7s 5s  -  2 mph 1018.6mb 56f 60f
3:50 0.7ft  -  5s 2
mph
1018.5mb 56f 59f
3:20 0.7ft  -  4s 4
mph
1018.5mb 56f 58f
2:50 0.7ft  -  5s 4 7 mph 1018.5mb 55f 58f
2:20 0.7ft  -  4s 4
mph
1018.5mb 57f 58f
1:50 0.7ft  -  4s 2 4 mph 1018.4mb 57f 58f
1:20 0.7ft  -  4s 2 4 mph 1018.4mb 55f 57f
12:50 0.3ft  -  4s 2 4 mph 1018.3mb 54f 57f
12:20 0.7ft  -  3s 4
mph
1018.5mb 54f 56f
11:50 0.7ft  -  3s 7 9 mph 1018.5mb 54f 55f
11:20 0.7ft  -  4s 7
mph
1018.5mb 53f 56f
10:50 0.7ft  -  4s 4 7 mph 1018.4mb 53f 56f
10:20 0.7ft  -  3s 4 7 mph 1018.2mb 53f 56f
9:50 0.7ft  -  3s 7
mph
1017.9mb 52f 55f
9:20 0.7ft  -  3s 4 9 mph 1017.6mb 52f 55f
8:50 1ft 3s 3s 7 9 mph 1017.4mb 52f 55f
8:20 1ft 3s 3s 11 13 mph 1016.8mb 51f 54f
7:50 1.3ft 3s 4s 11 16 mph 1016.6mb 51f 55f
7:20 1.3ft 3s  -  16 18 mph 1016mb 52f 54f
6:50 1.6ft 6s 4s 11 16 mph 1016.1mb 52f 53f
6:20 2.5ft 7s 4s 11 18 mph 1015.9mb 52f 55f
5:50 2.5ft 6s 4s 11 16 mph 1015.3mb 52f 55f
5:20 2.5ft 7s 4s 11 13 mph 1015mb 52f 55f
4:50 2ft 7s 4s 13 16 mph 1014.8mb 52f 56f
4:20 2.5ft 7s 4s 13 16 mph 1014.7mb 52f 56f
3:50 2.5ft 8s 4s 13 16 mph 1014.4mb 52f 56f
3:20 2.5ft 8s 5s 13 20 mph 1014.5mb 52f 56f
2:50 2.5ft 5s 5s 16 20 mph 1014.5mb 52f 56f
2:20 2.5ft 6s 5s 13 18 mph 1014.5mb 52f 55f
1:50 2.5ft 6s 5s 16 20 mph 1014.2mb 52f 55f
1:20 2.5ft 5s 4s 18 22 mph 1013.9mb 52f 55f
12:50 3ft 5s 5s 18 27 mph 1014mb 52f 56f
12:20 2.5ft 6s 5s 22 27 mph 1013.8mb 52f 56f
dom 08/21 11:50 3ft 6s 4s 20 25 mph 1013.8mb 52f 55f
11:20 2.5ft 4s 4s 20 25 mph 1013.6mb 52f 56f
10:50 2ft 4s 4s 22 27 mph 1013.4mb 52f 55f
10:20 2ft 4s 4s 22 27 mph 1013.5mb 52f 56f
9:50 2ft 3s 3s 22 27 mph 1013.1mb 52f 56f
9:20 2ft 4s 3s 20 22 mph 1013.3mb 52f 56f
8:20 2.5ft 4s 4s 25 31 mph 1012mb 52f 57f
7:50 2.5ft 4s 3s 27 34 mph 1012.1mb 52f 57f
7:20 3ft 4s 4s 22 27 mph 1012.3mb 53f 57f
6:50 3.5ft 4s 4s 25 29 mph 1011.7mb 53f 57f